createdAt,value
2016-03-04T00:00:57.775Z,13.81
2016-03-04T00:01:57.794Z,14.39
2016-03-04T00:02:57.797Z,13.91
2016-03-04T00:03:57.800Z,14
2016-03-04T00:04:57.818Z,14.09
2016-03-04T00:05:57.820Z,13.9
2016-03-04T00:06:57.823Z,14.19
2016-03-04T00:07:57.826Z,13.81
2016-03-04T00:08:57.844Z,14.29
2016-03-04T00:09:57.832Z,14.39
2016-03-04T00:10:57.850Z,14.01
2016-03-04T00:11:57.852Z,14.19
2016-03-04T00:12:57.855Z,14.2
2016-03-04T00:13:57.873Z,13.91
2016-03-04T00:14:57.876Z,14.01
2016-03-04T00:15:57.879Z,14.01
2016-03-04T00:16:57.881Z,14.01
2016-03-04T00:17:57.884Z,13.91
2016-03-04T00:18:57.903Z,14.29
2016-03-04T00:19:57.905Z,14.01
2016-03-04T00:20:57.923Z,14.01
2016-03-04T00:21:57.926Z,14.01
2016-03-04T00:22:57.928Z,14.29
2016-03-04T00:23:57.947Z,14.29
2016-03-04T00:24:57.934Z,14.39
2016-03-04T00:25:57.953Z,14.1
2016-03-04T00:26:57.956Z,14.29
2016-03-04T00:27:57.972Z,14.2
2016-03-04T00:28:57.992Z,14.29
2016-03-04T00:29:57.978Z,14.29
2016-03-04T00:30:57.814Z,14.2
2016-03-04T00:31:57.853Z,14.39
2016-03-04T00:32:57.996Z,14.19
2016-03-04T00:33:57.999Z,14.59
2016-03-04T00:34:58.002Z,14.2
2016-03-04T00:35:58.005Z,14.1
2016-03-04T00:36:58.023Z,14.2
2016-03-04T00:37:58.040Z,14.29
2016-03-04T00:38:58.028Z,14.09
2016-03-04T00:39:58.032Z,14.77
2016-03-04T00:40:58.034Z,14.29
2016-03-04T00:41:58.052Z,14.29
2016-03-04T00:42:58.054Z,14.39
2016-03-04T00:43:58.089Z,14.2
2016-03-04T00:44:58.075Z,14.29
2016-03-04T00:45:58.078Z,14.49
2016-03-04T00:46:58.081Z,14.01
2016-03-04T00:47:58.084Z,14.2
2016-03-04T00:48:58.103Z,14.01
2016-03-04T00:49:58.105Z,14.1
2016-03-04T00:50:58.123Z,14.1
2016-03-04T00:51:58.110Z,14.2
2016-03-04T00:52:58.129Z,14.01
2016-03-04T00:53:58.131Z,14.01
2016-03-04T00:54:58.150Z,14.29
2016-03-04T00:55:58.137Z,13.91
2016-03-04T00:56:58.156Z,14.39
2016-03-04T00:57:58.174Z,14.59
2016-03-04T00:58:58.177Z,14.29
2016-03-04T00:59:58.164Z,14.39
2016-03-04T01:00:58.183Z,14.49
2016-03-04T01:01:58.185Z,14.01
2016-03-04T01:02:58.188Z,14.39
2016-03-04T01:03:58.191Z,14.29
2016-03-04T01:04:58.208Z,14.68
2016-03-04T01:05:58.212Z,14.78
2016-03-04T01:06:58.230Z,14.59
2016-03-04T01:07:58.233Z,14.39
2016-03-04T01:08:58.219Z,14.59
2016-03-04T01:09:58.238Z,14.29
2016-03-04T01:10:58.241Z,14.78
2016-03-04T01:11:58.244Z,14.59
2016-03-04T01:12:58.261Z,14.49
2016-03-04T01:13:58.264Z,14.78
2016-03-04T01:14:58.283Z,14.78
2016-03-04T01:15:58.285Z,14.49
2016-03-04T01:16:58.288Z,14.39
2016-03-04T01:17:58.291Z,14.39
2016-03-04T01:18:58.293Z,14.59
2016-03-04T01:19:58.311Z,14.2
2016-03-04T01:20:58.299Z,14.2
2016-03-04T01:21:58.317Z,14.29
2016-03-04T01:22:58.320Z,14.59
2016-03-04T01:23:58.322Z,14.29
2016-03-04T01:24:58.325Z,14.68
2016-03-04T01:25:58.343Z,14.39
2016-03-04T01:26:58.362Z,14.49
2016-03-04T01:27:58.348Z,14.29
2016-03-04T01:28:58.367Z,14.59
2016-03-04T01:29:58.370Z,14.39
2016-03-04T01:30:58.388Z,14.39
2016-03-04T01:31:58.391Z,14.39
2016-03-04T01:32:58.394Z,14.39
2016-03-04T01:33:58.397Z,14.39
2016-03-04T01:34:58.399Z,14.29
2016-03-04T01:35:58.417Z,14.49
2016-03-04T01:36:58.419Z,14.39
2016-03-04T01:37:58.422Z,14.59
2016-03-04T01:38:58.409Z,14.39
2016-03-04T01:39:58.428Z,14.39
2016-03-04T01:40:58.446Z,14.39
2016-03-04T01:41:58.449Z,14.39
2016-03-04T01:42:58.451Z,14.29
2016-03-04T01:43:58.454Z,14.78
2016-03-04T01:44:58.472Z,14.39
2016-03-04T01:45:58.475Z,14.39
2016-03-04T01:46:58.494Z,14.39
2016-03-04T01:47:58.496Z,14.29
2016-03-04T01:48:58.499Z,14.39
2016-03-04T01:49:58.502Z,14.49
2016-03-04T01:50:58.504Z,14.39
2016-03-04T01:51:58.506Z,14.39
2016-03-04T01:52:58.526Z,14.59
2016-03-04T01:53:58.544Z,14.78
2016-03-04T01:54:58.531Z,14.39
2016-03-04T01:55:58.533Z,14.39
2016-03-04T01:56:58.551Z,14.39
2016-03-04T01:57:58.554Z,14.68
2016-03-04T01:58:58.556Z,14.39
2016-03-04T01:59:58.559Z,14.59
2016-03-04T02:00:58.578Z,14.68
2016-03-04T02:01:58.581Z,14.29
2016-03-04T02:02:58.583Z,14.49
2016-03-04T02:03:58.603Z,14.39
2016-03-04T02:04:58.605Z,14.49
2016-03-04T02:05:58.638Z,14.68
2016-03-04T02:06:58.610Z,14.78
2016-03-04T02:07:58.627Z,14.68
2016-03-04T02:08:58.630Z,14.78
2016-03-04T02:09:58.633Z,14.87
2016-03-04T02:10:58.651Z,14.77
2016-03-04T02:11:58.654Z,14.59
2016-03-04T02:12:58.657Z,14.39
2016-03-04T02:13:58.674Z,14.59
2016-03-04T02:14:58.677Z,14.29
2016-03-04T02:15:58.680Z,14.59
2016-03-04T02:16:58.683Z,14.78
2016-03-04T02:17:58.685Z,14.68
2016-03-04T02:18:58.704Z,14.49
2016-03-04T02:19:58.707Z,14.78
2016-03-04T02:20:58.709Z,14.78
2016-03-04T02:21:58.712Z,14.59
2016-03-04T02:22:58.714Z,14.59
2016-03-04T02:23:58.733Z,14.68
2016-03-04T02:24:58.751Z,14.49
2016-03-04T02:25:58.739Z,14.78
2016-03-04T02:26:58.756Z,14.78
2016-03-04T02:27:58.749Z,14.87
2016-03-04T02:28:58.766Z,14.68
2016-03-04T02:29:58.769Z,14.78
2016-03-04T02:30:58.772Z,14.78
2016-03-04T02:31:58.775Z,14.87
2016-03-04T02:32:58.793Z,14.87
2016-03-04T02:33:58.796Z,14.78
2016-03-04T02:34:58.799Z,14.78
2016-03-04T02:35:58.802Z,15.07
2016-03-04T02:36:58.819Z,14.78
2016-03-04T02:37:58.822Z,14.78
2016-03-04T02:38:58.824Z,14.87
2016-03-04T02:39:58.843Z,14.68
2016-03-04T02:40:58.846Z,14.78
2016-03-04T02:41:58.848Z,14.78
2016-03-04T02:42:58.851Z,14.29
2016-03-04T02:43:58.870Z,15.07
2016-03-04T02:44:58.856Z,14.39
2016-03-04T02:45:58.875Z,14.68
2016-03-04T02:46:58.878Z,14.59
2016-03-04T02:47:58.880Z,14.68
2016-03-04T02:48:58.898Z,14.87
2016-03-04T02:49:58.901Z,14.78
2016-03-04T02:50:58.904Z,14.49
2016-03-04T02:51:58.922Z,14.68
2016-03-04T02:52:58.925Z,14.59
2016-03-04T02:53:58.927Z,14.97
2016-03-04T02:54:58.930Z,14.78
2016-03-04T02:55:58.949Z,14.49
2016-03-04T02:56:58.952Z,14.68
2016-03-04T02:57:58.955Z,14.68
2016-03-04T02:58:58.957Z,14.87
2016-03-04T02:59:58.975Z,14.59
2016-03-04T03:00:58.978Z,14.39
2016-03-04T03:01:58.981Z,14.68
2016-03-04T03:02:58.999Z,14.78
2016-03-04T03:03:58.986Z,14.87
2016-03-04T03:04:59.004Z,14.87
2016-03-04T03:05:59.007Z,14.68
2016-03-04T03:06:59.009Z,14.2
2016-03-04T03:07:59.012Z,14.39
2016-03-04T03:08:59.030Z,14.87
2016-03-04T03:09:59.033Z,14.68
2016-03-04T03:10:59.052Z,14.78
2016-03-04T03:11:59.054Z,14.59
2016-03-04T03:12:59.056Z,14.78
2016-03-04T03:13:59.075Z,14.87
2016-03-04T03:14:59.063Z,14.87
2016-03-04T03:15:59.081Z,14.78
2016-03-04T03:16:59.083Z,14.78
2016-03-04T03:17:59.086Z,14.78
2016-03-04T03:18:59.089Z,14.68
2016-03-04T03:19:59.091Z,14.2
2016-03-04T03:20:59.109Z,14.68
2016-03-04T03:21:59.112Z,14.87
2016-03-04T03:22:59.115Z,14.68
2016-03-04T03:23:59.133Z,14.68
2016-03-04T03:24:59.136Z,14.78
2016-03-04T03:25:59.138Z,14.39
2016-03-04T03:26:59.141Z,14.2
2016-03-04T03:27:59.161Z,14.78
2016-03-04T03:28:59.163Z,14.59
2016-03-04T03:29:59.166Z,14.97
2016-03-04T03:30:59.168Z,14.78
2016-03-04T03:31:59.171Z,14.49
2016-03-04T03:32:59.188Z,14.49
2016-03-04T03:33:59.191Z,14.49
2016-03-04T03:34:59.210Z,14.2
2016-03-04T03:35:59.197Z,14.78
2016-03-04T03:36:59.215Z,14.68
2016-03-04T03:37:59.218Z,14.49
2016-03-04T03:38:59.220Z,14.68
2016-03-04T03:39:59.223Z,14.68
2016-03-04T03:40:59.227Z,14.2
2016-03-04T03:41:59.244Z,14.59
2016-03-04T03:42:59.263Z,14.39
2016-03-04T03:43:59.265Z,14.39
2016-03-04T03:44:59.268Z,14.39
2016-03-04T03:45:59.286Z,14.39
2016-03-04T03:46:59.273Z,14.2
2016-03-04T03:47:59.276Z,14.2
2016-03-04T03:48:59.295Z,14.49
2016-03-04T03:49:59.298Z,14.29
2016-03-04T03:50:59.300Z,14.59
2016-03-04T03:51:59.317Z,14.87
2016-03-04T03:52:59.320Z,14.39
2016-03-04T03:53:59.324Z,14.59
2016-03-04T03:54:59.325Z,14.29
2016-03-04T03:55:59.328Z,14.39
2016-03-04T03:56:59.363Z,14.87
2016-03-04T03:57:59.350Z,14.49
2016-03-04T03:58:59.368Z,14.59
2016-03-04T03:59:59.355Z,14.59
2016-03-04T04:00:59.374Z,14.78
2016-03-04T04:01:59.376Z,14.78
2016-03-04T04:02:59.394Z,14.68
2016-03-04T04:03:59.382Z,14.78
2016-03-04T04:04:59.446Z,14.68
2016-03-04T04:05:59.418Z,14.68
2016-03-04T04:06:59.405Z,14.68
2016-03-04T04:07:59.424Z,14.78
2016-03-04T04:08:59.427Z,14.68
2016-03-04T04:09:59.429Z,14.68
2016-03-04T04:10:59.447Z,14.78
2016-03-04T04:11:59.449Z,15.07
2016-03-04T04:12:59.452Z,14.87
2016-03-04T04:13:59.454Z,14.78
2016-03-04T04:14:59.458Z,14.78
2016-03-04T04:15:59.477Z,14.78
2016-03-04T04:16:59.479Z,14.78
2016-03-04T04:17:59.482Z,14.97
2016-03-04T04:18:59.500Z,14.59
2016-03-04T04:19:59.503Z,14.39
2016-03-04T04:20:59.505Z,14.49
2016-03-04T04:21:59.509Z,14.59
2016-03-04T04:22:59.526Z,14.49
2016-03-04T04:23:59.529Z,14.59
2016-03-04T04:24:59.531Z,14.68
2016-03-04T04:25:59.534Z,14.68
2016-03-04T04:26:59.552Z,14.67
2016-03-04T04:27:59.556Z,14.78
2016-03-04T04:28:59.559Z,14.87
2016-03-04T04:29:59.561Z,14.97
2016-03-04T04:30:59.563Z,14.87
2016-03-04T04:31:59.566Z,14.87
2016-03-04T04:32:59.585Z,14.87
2016-03-04T04:33:59.602Z,15.07
2016-03-04T04:34:59.590Z,15.26
2016-03-04T04:35:59.608Z,15.45
2016-03-04T04:36:59.611Z,15.06
2016-03-04T04:37:59.613Z,15.36
2016-03-04T04:38:59.632Z,15.25
2016-03-04T04:39:59.634Z,15.06
2016-03-04T04:40:59.637Z,15.25
2016-03-04T04:41:59.640Z,15.07
2016-03-04T04:42:59.673Z,14.97
2016-03-04T04:43:59.661Z,15.55
2016-03-04T04:44:59.663Z,15.35
2016-03-04T04:45:59.682Z,15.45
2016-03-04T04:46:59.684Z,15.73
2016-03-04T04:47:59.704Z,15.45
2016-03-04T04:48:59.690Z,15.16
2016-03-04T04:49:59.693Z,15.35
2016-03-04T04:50:59.711Z,14.97
2016-03-04T04:51:59.714Z,15.45
2016-03-04T04:52:59.717Z,15.45
2016-03-04T04:53:59.779Z,15.55
2016-03-04T04:54:59.595Z,15.06
2016-03-04T04:56:00.271Z,15.35
2016-03-04T04:56:59.805Z,15.35
2016-03-04T04:57:59.744Z,15.55
2016-03-04T04:58:59.763Z,15.06
2016-03-04T04:59:59.640Z,15.35
2016-03-04T05:00:59.784Z,15.64
2016-03-04T05:01:59.786Z,15.73
2016-03-04T05:02:59.789Z,15.45
2016-03-04T05:03:59.808Z,15.06
2016-03-04T05:04:59.795Z,15.25
2016-03-04T05:05:59.829Z,15.45
2016-03-04T05:06:59.815Z,15.45
2016-03-04T05:07:59.818Z,15.16
2016-03-04T05:08:59.837Z,15.35
2016-03-04T05:09:59.840Z,15.64
2016-03-04T05:10:59.842Z,15.35
2016-03-04T05:11:59.845Z,15.06
2016-03-04T05:12:59.847Z,15.06
2016-03-04T05:13:59.866Z,15.55
2016-03-04T05:14:59.899Z,15.45
2016-03-04T05:15:59.918Z,15.36
2016-03-04T05:16:59.890Z,15.06
2016-03-04T05:17:59.892Z,15.16
2016-03-04T05:18:59.895Z,15.35
2016-03-04T05:19:59.897Z,15.45
2016-03-04T05:20:59.900Z,15.36
2016-03-04T05:21:59.919Z,15.45
2016-03-04T05:22:59.922Z,15.65
2016-03-04T05:23:59.924Z,15.35
2016-03-04T05:24:59.927Z,15.36
2016-03-04T05:25:59.944Z,15.45
2016-03-04T05:26:59.947Z,15.64
2016-03-04T05:27:59.965Z,15.64
2016-03-04T05:28:59.953Z,15.35
2016-03-04T05:29:59.972Z,15.35
2016-03-04T05:30:59.974Z,15.73
2016-03-04T05:31:59.977Z,15.25
2016-03-04T05:32:59.995Z,15.06
2016-03-04T05:34:00.013Z,15.83
2016-03-04T05:35:00.001Z,15.55
2016-03-04T05:36:00.018Z,15.35
2016-03-04T05:37:00.006Z,15.06
2016-03-04T05:38:00.024Z,15.06
2016-03-04T05:39:00.026Z,14.97
2016-03-04T05:40:00.029Z,15.25
2016-03-04T05:41:00.047Z,15.45
2016-03-04T05:42:00.051Z,15.06
2016-03-04T05:43:00.070Z,15.06
2016-03-04T05:44:00.072Z,15.06
2016-03-04T05:45:00.090Z,14.67
2016-03-04T05:46:00.077Z,15.16
2016-03-04T05:47:00.080Z,14.67
2016-03-04T05:48:00.097Z,14.97
2016-03-04T05:49:00.100Z,14.58
2016-03-04T05:50:00.119Z,14.58
2016-03-04T05:51:00.106Z,15.36
2016-03-04T05:52:00.124Z,15.25
2016-03-04T05:53:00.127Z,14.67
2016-03-04T05:54:00.144Z,15.45
2016-03-04T05:55:00.133Z,15.25
2016-03-04T05:56:00.135Z,15.35
2016-03-04T05:57:00.153Z,15.25
2016-03-04T05:58:00.156Z,15.25
2016-03-04T05:59:00.174Z,14.87
2016-03-04T06:00:00.161Z,14.77
2016-03-04T06:01:00.179Z,14.67
2016-03-04T06:02:00.182Z,14.87
2016-03-04T06:03:00.201Z,14.78
2016-03-04T06:04:00.204Z,15.06
2016-03-04T06:05:00.222Z,15.25
2016-03-04T06:06:00.209Z,15.25
2016-03-04T06:07:00.227Z,14.97
2016-03-04T06:08:00.226Z,14.67
2016-03-04T06:09:00.233Z,15.16
2016-03-04T06:10:00.207Z,15.16
2016-03-04T06:11:00.197Z,14.97
2016-03-04T06:12:00.203Z,15.25
2016-03-04T06:13:00.194Z,15.16
2016-03-04T06:14:00.208Z,15.25
2016-03-04T06:15:00.190Z,14.77
2016-03-04T06:16:00.220Z,15.16
2016-03-04T06:17:00.203Z,14.87
2016-03-04T06:18:00.202Z,14.67
2016-03-04T06:19:00.218Z,15.06
2016-03-04T06:20:00.219Z,15.16
2016-03-04T06:21:00.220Z,14.87
2016-03-04T06:22:00.221Z,14.78
2016-03-04T06:23:00.238Z,14.77
2016-03-04T06:24:00.240Z,14.87
2016-03-04T06:25:00.242Z,14.87
2016-03-04T06:26:00.244Z,14.67
2016-03-04T06:27:00.261Z,14.78
2016-03-04T06:28:00.263Z,14.87
2016-03-04T06:29:00.266Z,14.97
2016-03-04T06:30:00.269Z,14.67
2016-03-04T06:31:00.288Z,14.67
2016-03-04T06:32:00.290Z,14.87
2016-03-04T06:33:00.293Z,14.77
2016-03-04T06:34:00.311Z,14.67
2016-03-04T06:35:00.314Z,14.67
2016-03-04T06:36:00.332Z,14.77
2016-03-04T06:37:00.320Z,14.67
2016-03-04T06:38:00.337Z,14.77
2016-03-04T06:39:00.340Z,14.67
2016-03-04T06:40:00.187Z,14.77
2016-03-04T06:41:00.345Z,14.87
2016-03-04T06:42:00.364Z,14.77
2016-03-04T06:43:00.367Z,14.87
2016-03-04T06:44:00.370Z,14.87
2016-03-04T06:45:00.388Z,14.67
2016-03-04T06:46:00.391Z,14.87
2016-03-04T06:47:00.393Z,14.48
2016-03-04T06:48:00.396Z,14.48
2016-03-04T06:49:00.413Z,14.87
2016-03-04T06:50:00.417Z,14.87
2016-03-04T06:51:00.420Z,14.48
2016-03-04T06:52:00.422Z,14.77
2016-03-04T06:53:00.441Z,14.77
2016-03-04T06:54:00.443Z,14.48
2016-03-04T06:55:00.477Z,14.67
2016-03-04T06:56:00.464Z,14.77
2016-03-04T06:57:00.451Z,14.77
2016-03-04T06:58:00.469Z,14.58
2016-03-04T06:59:00.472Z,14.87
2016-03-04T07:00:00.490Z,14.48
2016-03-04T07:01:00.509Z,14.97
2016-03-04T07:02:00.495Z,14.58
2016-03-04T07:03:00.530Z,14.48
2016-03-04T07:04:00.501Z,14.67
2016-03-04T07:05:00.520Z,14.87
2016-03-04T07:06:00.366Z,14.97
2016-03-04T07:07:00.526Z,14.58
2016-03-04T07:08:00.543Z,14.87
2016-03-04T07:09:00.530Z,14.58
2016-03-04T07:10:00.548Z,14.58
2016-03-04T07:11:00.551Z,14.49
2016-03-04T07:12:00.554Z,14.58
2016-03-04T07:13:00.557Z,14.48
2016-03-04T07:14:00.576Z,14.58
2016-03-04T07:15:00.578Z,14.67
2016-03-04T07:16:00.596Z,14.58
2016-03-04T07:17:00.599Z,14.48
2016-03-04T07:18:00.617Z,14.48
2016-03-04T07:19:00.604Z,14.39
2016-03-04T07:20:00.622Z,14.48
2016-03-04T07:21:00.625Z,14.77
2016-03-04T07:22:00.644Z,14.68
2016-03-04T07:23:00.630Z,14.87
2016-03-04T07:24:00.633Z,15.06
2016-03-04T07:25:00.652Z,14.29
2016-03-04T07:26:00.654Z,14.87
2016-03-04T07:27:00.672Z,14.67
2016-03-04T07:28:00.674Z,14.87
2016-03-04T07:29:00.677Z,14.77
2016-03-04T07:30:00.680Z,14.97
2016-03-04T07:31:00.698Z,14.87
2016-03-04T07:32:00.702Z,14.39
2016-03-04T07:33:00.704Z,14.01
2016-03-04T07:34:00.707Z,14.29
2016-03-04T07:35:00.710Z,14.39
2016-03-04T07:36:00.728Z,13.91
2016-03-04T07:37:00.809Z,13.92
2016-03-04T07:38:00.764Z,13.53
2016-03-04T07:39:00.768Z,13.62
2016-03-04T07:40:00.754Z,13.92
2016-03-04T07:41:00.757Z,13.34
2016-03-04T07:42:00.759Z,13.44
2016-03-04T07:43:00.762Z,13.24
2016-03-04T07:44:00.781Z,13.24
2016-03-04T07:45:00.783Z,12.67
2016-03-04T07:46:00.803Z,12.67
2016-03-04T07:47:00.789Z,12.87
2016-03-04T07:48:00.807Z,12.67
2016-03-04T07:49:00.810Z,12.19
2016-03-04T07:50:00.828Z,12.29
2016-03-04T07:51:00.815Z,12.19
2016-03-04T07:52:00.833Z,12.58
2016-03-04T07:53:00.835Z,12.48
2016-03-04T07:54:00.855Z,12.19
2016-03-04T07:55:00.857Z,12.39
2016-03-04T07:56:00.860Z,12.48
2016-03-04T07:57:00.863Z,12.19
2016-03-04T07:58:00.865Z,12.39
2016-03-04T07:59:00.883Z,12.19
2016-03-04T08:00:00.886Z,12.29
2016-03-04T08:01:00.905Z,12.48
2016-03-04T08:02:00.751Z,12.48
2016-03-04T08:03:00.159Z,12.1
2016-03-04T08:04:00.929Z,12
2016-03-04T08:05:00.931Z,12.29
2016-03-04T08:06:00.934Z,12.19
2016-03-04T08:07:00.937Z,12
2016-03-04T08:08:00.939Z,12.2
2016-03-04T08:09:00.957Z,12
2016-03-04T08:10:00.959Z,12.19
2016-03-04T08:11:00.979Z,12.1
2016-03-04T08:12:00.965Z,12.1
2016-03-04T08:13:00.983Z,12.29
2016-03-04T08:14:00.986Z,12.19
2016-03-04T08:15:01.005Z,12.3
2016-03-04T08:16:15.179Z,12.19
2016-03-04T08:17:01.011Z,12.48
2016-03-04T08:18:01.014Z,12.19
2016-03-04T08:19:01.031Z,12.19
2016-03-04T08:20:01.033Z,12.48
2016-03-04T08:21:01.052Z,12.29
2016-03-04T08:22:01.055Z,12.48
2016-03-04T08:23:01.073Z,12.68
2016-03-04T08:24:01.060Z,12.19
2016-03-04T08:25:01.094Z,12.1
2016-03-04T08:26:01.080Z,12.58
2016-03-04T08:27:01.083Z,12.19
2016-03-04T08:28:01.086Z,12.29
2016-03-04T08:29:01.105Z,12.19
2016-03-04T08:30:01.107Z,12.29
2016-03-04T08:31:01.110Z,12.87
2016-03-04T08:32:01.129Z,12.77
2016-03-04T08:33:01.131Z,12.87
2016-03-04T08:34:01.149Z,12.87
2016-03-04T08:35:01.137Z,12.77
2016-03-04T08:36:01.154Z,12.96
2016-03-04T08:37:01.173Z,12.77
2016-03-04T08:38:01.176Z,12.67
2016-03-04T08:39:01.179Z,12.48
2016-03-04T08:40:01.181Z,12.48
2016-03-04T08:41:01.184Z,12.48
2016-03-04T08:42:01.203Z,13.15
2016-03-04T08:43:01.205Z,12.77
2016-03-04T08:44:01.223Z,13.25
2016-03-04T08:45:01.226Z,13.15
2016-03-04T08:46:01.228Z,13.06
2016-03-04T08:47:01.231Z,13.06
2016-03-04T08:48:01.250Z,13.06
2016-03-04T08:49:01.253Z,13.35
2016-03-04T08:50:01.255Z,13.06
2016-03-04T08:51:01.273Z,13.05
2016-03-04T08:52:01.276Z,12.86
2016-03-04T08:53:01.278Z,13.05
2016-03-04T08:54:01.296Z,13.15
2016-03-04T08:55:01.300Z,13.06
2016-03-04T08:56:01.302Z,13.25
2016-03-04T08:57:01.305Z,12.96
2016-03-04T08:58:01.324Z,13.15
2016-03-04T08:59:01.326Z,13.24
2016-03-04T09:00:01.344Z,13.24
2016-03-04T09:01:01.347Z,13.24
2016-03-04T09:02:01.349Z,13.05
2016-03-04T09:03:01.352Z,13.06
2016-03-04T09:04:01.386Z,13.24
2016-03-04T09:05:01.374Z,12.86
2016-03-04T09:06:01.377Z,13.25
2016-03-04T09:07:01.395Z,13.06
2016-03-04T09:08:01.398Z,12.96
2016-03-04T09:09:01.400Z,13.06
2016-03-04T09:10:01.435Z,13.06
2016-03-04T09:11:01.422Z,13.15
2016-03-04T09:12:01.424Z,13.15
2016-03-04T09:13:01.428Z,13.15
2016-03-04T09:14:01.430Z,13.34
2016-03-04T09:15:01.449Z,13.06
2016-03-04T09:16:01.451Z,13.15
2016-03-04T09:17:01.454Z,13.06
2016-03-04T09:18:01.471Z,13.06
2016-03-04T09:19:01.474Z,13.15
2016-03-04T09:20:01.476Z,13.15
2016-03-04T09:21:01.496Z,13.06
2016-03-04T09:22:01.498Z,13.06
2016-03-04T09:23:01.532Z,13.15
2016-03-04T09:24:01.504Z,13.05
2016-03-04T09:25:01.522Z,13.06
2016-03-04T09:26:01.525Z,12.77
2016-03-04T09:27:01.543Z,13.06
2016-03-04T09:28:01.545Z,12.96
2016-03-04T09:29:01.564Z,13.15
2016-03-04T09:30:01.551Z,13.15
2016-03-04T09:31:01.584Z,13.15
2016-03-04T09:32:01.573Z,13.05
2016-03-04T09:33:01.575Z,13.25
2016-03-04T09:34:01.624Z,13.25
2016-03-04T09:35:01.595Z,13.06
2016-03-04T09:36:01.598Z,12.87
2016-03-04T09:37:01.617Z,13.15
2016-03-04T09:38:01.619Z,13.25
2016-03-04T09:39:01.622Z,12.87
2016-03-04T09:40:01.625Z,13.06
2016-03-04T09:41:01.644Z,13.05
2016-03-04T09:42:01.646Z,13.24
2016-03-04T09:43:01.664Z,12.96
2016-03-04T09:44:01.666Z,13.25
2016-03-04T09:45:01.669Z,13.05
2016-03-04T09:46:01.719Z,12.96
2016-03-04T09:47:01.674Z,13.05
2016-03-04T09:48:01.693Z,13.25
2016-03-04T09:49:01.712Z,13.05
2016-03-04T09:50:01.715Z,13.06
2016-03-04T09:51:01.718Z,12.87
2016-03-04T09:52:01.735Z,12.87
2016-03-04T09:53:01.722Z,12.38
2016-03-04T09:54:01.741Z,13.06
2016-03-04T09:55:01.743Z,12.96
2016-03-04T09:56:01.745Z,13.05
2016-03-04T09:57:01.749Z,12.77
2016-03-04T09:58:01.767Z,12.67
2016-03-04T09:59:01.770Z,12.57
2016-03-04T10:00:01.788Z,12.57
2016-03-04T10:01:01.790Z,12.57
2016-03-04T10:02:01.793Z,12.48
2016-03-04T10:03:01.828Z,12.77
2016-03-04T10:04:01.814Z,12.96
2016-03-04T10:05:01.816Z,13.05
2016-03-04T10:06:01.820Z,12.96
2016-03-04T10:07:01.838Z,12.67
2016-03-04T10:08:01.841Z,12.57
2016-03-04T10:09:01.844Z,12.87
2016-03-04T10:10:01.846Z,12.67
2016-03-04T10:11:01.864Z,12.57
2016-03-04T10:12:01.867Z,12.48
2016-03-04T10:13:01.869Z,12.87
2016-03-04T10:14:01.872Z,12.77
2016-03-04T10:15:01.891Z,12.67
2016-03-04T10:16:01.924Z,12.77
2016-03-04T10:17:01.897Z,12.48
2016-03-04T10:18:01.915Z,12.87
2016-03-04T10:19:01.917Z,12.38
2016-03-04T10:20:01.936Z,12.67
2016-03-04T10:21:01.954Z,12.67
2016-03-04T10:22:01.940Z,12.96
2016-03-04T10:23:01.944Z,12.77
2016-03-04T10:24:02.368Z,12.77
2016-03-04T10:25:01.965Z,13.25
2016-03-04T10:26:01.982Z,12.48
2016-03-04T10:27:01.985Z,12.87
2016-03-04T10:28:01.988Z,12.57
2016-03-04T10:29:02.006Z,13.06
2016-03-04T10:30:01.993Z,12.48
2016-03-04T10:31:02.011Z,12.96
2016-03-04T10:32:02.015Z,12.67
2016-03-04T10:33:02.033Z,12.48
2016-03-04T10:34:02.036Z,12.48
2016-03-04T10:35:02.039Z,12.77
2016-03-04T10:36:02.041Z,12.77
2016-03-04T10:37:02.059Z,12.67
2016-03-04T10:38:02.078Z,12.87
2016-03-04T10:39:02.080Z,12.67
2016-03-04T10:40:02.083Z,12.77
2016-03-04T10:41:02.086Z,12.67
2016-03-04T10:42:02.088Z,12.57
2016-03-04T10:43:02.091Z,12.87
2016-03-04T10:44:02.109Z,12.77
2016-03-04T10:45:02.113Z,12.67
2016-03-04T10:46:02.130Z,12.87
2016-03-04T10:47:02.132Z,12.67
2016-03-04T10:48:02.136Z,12.48
2016-03-04T10:49:02.138Z,12.96
2016-03-04T10:50:02.141Z,12.77
2016-03-04T10:51:02.160Z,12.48
2016-03-04T10:52:02.163Z,12.48
2016-03-04T10:53:02.165Z,12.67
2016-03-04T10:54:02.183Z,12.57
2016-03-04T10:55:02.185Z,12.67
2016-03-04T10:56:02.188Z,12.29
2016-03-04T10:57:02.207Z,12.57
2016-03-04T10:58:02.210Z,12.19
2016-03-04T10:59:02.212Z,12.38
2016-03-04T11:00:02.230Z,12.38
2016-03-04T11:01:02.234Z,12.57
2016-03-04T11:02:02.236Z,12.57
2016-03-04T11:03:02.238Z,12.57
2016-03-04T11:04:02.273Z,12.67
2016-03-04T11:05:02.260Z,12.19
2016-03-04T11:06:02.278Z,12.09
2016-03-04T11:07:02.280Z,12.38
2016-03-04T11:08:02.284Z,12.09
2016-03-04T11:09:02.286Z,12.19
2016-03-04T11:10:02.304Z,12.38
2016-03-04T11:11:02.323Z,12.18
2016-03-04T11:12:02.310Z,12.19
2016-03-04T11:13:02.328Z,12.57
2016-03-04T11:14:02.331Z,12.19
2016-03-04T11:15:02.333Z,12.38
2016-03-04T11:16:02.352Z,12.48
2016-03-04T11:17:02.354Z,12.38
2016-03-04T11:18:02.357Z,12.38
2016-03-04T11:19:02.375Z,12.19
2016-03-04T11:20:02.377Z,12.19
2016-03-04T11:21:02.397Z,12.19
2016-03-04T11:22:02.383Z,12.48
2016-03-04T11:23:02.417Z,12.57
2016-03-04T11:24:02.405Z,12.48
2016-03-04T11:25:02.407Z,12.48
2016-03-04T11:26:02.426Z,12.38
2016-03-04T11:27:02.443Z,12.48
2016-03-04T11:28:02.432Z,12.19
2016-03-04T11:29:02.434Z,12.19
2016-03-04T11:30:02.451Z,12.38
2016-03-04T11:31:02.470Z,12.38
2016-03-04T11:32:02.473Z,12.48
2016-03-04T11:33:02.475Z,12.57
2016-03-04T11:34:02.509Z,12.57
2016-03-04T11:35:02.497Z,12.38
2016-03-04T11:36:02.484Z,12.57
2016-03-04T11:37:02.502Z,12.57
2016-03-04T11:38:02.505Z,12.29
2016-03-04T11:39:02.523Z,12.66
2016-03-04T11:40:02.525Z,12.48
2016-03-04T11:41:02.544Z,12.19
2016-03-04T11:42:02.531Z,12.28
2016-03-04T11:43:02.581Z,12.48
2016-03-04T11:44:02.552Z,12.38
2016-03-04T11:45:02.554Z,12.38
2016-03-04T11:46:02.573Z,12.29
2016-03-04T11:47:02.575Z,12.38
2016-03-04T11:48:02.594Z,12.47
2016-03-04T11:49:02.597Z,12.47
2016-03-04T11:50:02.600Z,12.57
2016-03-04T11:51:02.602Z,12.28
2016-03-04T11:52:02.604Z,12.48
2016-03-04T11:53:02.624Z,12.47
2016-03-04T11:54:02.626Z,12.19
2016-03-04T11:55:02.643Z,12.48
2016-03-04T11:56:02.646Z,12.28
2016-03-04T11:57:02.649Z,12.48
2016-03-04T11:58:02.668Z,12.29
2016-03-04T11:59:02.654Z,12.57
2016-03-04T12:00:02.673Z,12.66
2016-03-04T12:01:02.676Z,12.29
2016-03-04T12:02:02.694Z,12.47
2016-03-04T12:03:02.697Z,12.29
2016-03-04T12:04:02.700Z,12.29
2016-03-04T12:05:02.703Z,12.09
2016-03-04T12:06:02.720Z,12.18
2016-03-04T12:07:02.723Z,12.38
2016-03-04T12:08:02.741Z,12.18
2016-03-04T12:09:02.728Z,12.18
2016-03-04T12:10:02.747Z,12.57
2016-03-04T12:11:02.765Z,12.19
2016-03-04T12:12:02.752Z,12.38
2016-03-04T12:13:02.786Z,12.18
2016-03-04T12:14:02.789Z,12.19
2016-03-04T12:15:02.807Z,12.29
2016-03-04T12:16:02.794Z,12.18
2016-03-04T12:17:02.797Z,12.57
2016-03-04T12:18:02.800Z,12.48
2016-03-04T12:19:02.818Z,12.38
2016-03-04T12:20:02.821Z,12.38
2016-03-04T12:21:02.824Z,12.38
2016-03-04T12:22:02.826Z,12.28
2016-03-04T12:23:02.844Z,12.19
2016-03-04T12:24:02.846Z,12.29
2016-03-04T12:25:02.850Z,12.29
2016-03-04T12:26:02.868Z,12.38
2016-03-04T12:27:02.870Z,12.29
2016-03-04T12:28:02.890Z,12.29
2016-03-04T12:29:02.892Z,12.29
2016-03-04T12:30:02.895Z,12.19
2016-03-04T12:31:02.897Z,12.29
2016-03-04T12:32:02.916Z,12.29
2016-03-04T12:33:02.918Z,12.29
2016-03-04T12:34:02.936Z,12.29
2016-03-04T12:35:02.924Z,12.19
2016-03-04T12:36:02.941Z,12.09
2016-03-04T12:37:02.945Z,12.19
2016-03-04T12:38:02.947Z,12.29
2016-03-04T12:39:02.965Z,11.8
2016-03-04T12:40:02.968Z,12.38
2016-03-04T12:41:02.970Z,11.8
2016-03-04T12:42:02.989Z,11.71
2016-03-04T12:43:02.991Z,11.61
2016-03-04T12:44:02.995Z,11.9
2016-03-04T12:45:02.997Z,11.8
2016-03-04T12:46:03.172Z,11.8
2016-03-04T12:47:03.065Z,12.19
2016-03-04T12:48:03.021Z,11.9
2016-03-04T12:49:03.039Z,11.71
2016-03-04T12:50:03.041Z,11.8
2016-03-04T12:51:03.060Z,11.61
2016-03-04T12:52:03.063Z,11.51
2016-03-04T12:53:03.050Z,11.71
2016-03-04T12:54:03.068Z,11.9
2016-03-04T12:55:03.087Z,11.71